Time;durP1;ratioP1;P1;durP2;ratioP2;P2;SDS_P1;SDS_P2;PMS_P1;PMS_P2;Temp;Humidity;BMP_temperature;BMP_pressure;BME280_temperature;BME280_humidity;BME280_pressure;Samples;Min_cycle;Max_cycle;Signal;HPM_P1;HPM_P2
2024/03/24 00:01:48;;;;;;;1.00;1.00;;;;;;;2.82;95.28;97876.72;6205372;23;20028;-90
2024/03/24 00:04:14;;;;;;;0.95;0.95;;;;;;;2.88;93.34;97875.22;6206513;23;20091;-89
2024/03/24 00:06:39;;;;;;;1.00;1.00;;;;;;;2.87;94.04;97874.28;6181096;23;20065;-90
2024/03/24 00:09:06;;;;;;;0.95;0.95;;;;;;;2.97;92.74;97870.34;6156958;23;20024;-90
2024/03/24 00:11:31;;;;;;;1.10;1.10;;;;;;;2.99;94.26;97872.22;6180878;23;20015;-89
2024/03/24 00:13:57;;;;;;;0.93;0.93;;;;;;;3.08;93.11;97869.09;6156868;23;20013;-90
2024/03/24 00:16:22;;;;;;;1.10;1.10;;;;;;;3.21;91.53;97855.63;6180341;23;20017;-89
2024/03/24 00:18:48;;;;;;;1.00;1.00;;;;;;;3.24;91.06;97860.13;6158098;23;20020;-91
2024/03/24 00:21:13;;;;;;;1.00;1.00;;;;;;;3.17;91.79;97864.25;6156849;23;20024;-91
2024/03/24 00:23:39;;;;;;;1.00;1.00;;;;;;;3.21;91.21;97866.19;6183272;23;20009;-91
2024/03/24 00:26:05;;;;;;;1.00;1.00;;;;;;;3.22;91.50;97860.06;6184250;23;20013;-91
2024/03/24 00:28:30;;;;;;;0.90;0.90;;;;;;;3.19;92.23;97866.94;6159425;23;20017;-90
2024/03/24 00:30:56;;;;;;;1.00;1.00;;;;;;;3.23;92.66;97855.69;6185490;23;20091;-92
2024/03/24 00:33:21;;;;;;;1.00;1.00;;;;;;;3.19;91.17;97857.28;6183686;23;20009;-92
2024/03/24 00:35:47;;;;;;;1.00;1.00;;;;;;;3.12;91.83;97865.78;6183404;23;20017;-92
2024/03/24 00:38:13;;;;;;;1.00;1.00;;;;;;;3.18;91.16;97862.50;6158009;23;20013;-90
2024/03/24 00:40:39;;;;;;;0.98;0.98;;;;;;;3.13;91.45;97858.75;6164288;23;20013;-91
2024/03/24 00:43:04;;;;;;;1.10;1.10;;;;;;;3.06;90.56;97852.31;6171633;23;20023;-91
2024/03/24 00:45:30;;;;;;;1.00;1.00;;;;;;;2.99;91.79;97852.88;6166417;23;19997;-92
2024/03/24 00:47:56;;;;;;;1.00;1.00;;;;;;;2.89;91.85;97843.66;6192500;23;20012;-92
2024/03/24 00:50:21;;;;;;;1.10;1.10;;;;;;;2.86;92.17;97845.25;6169477;23;20013;-92
2024/03/24 00:52:47;;;;;;;1.00;1.00;;;;;;;2.70;93.43;97836.69;6167672;23;20021;-93
2024/03/24 00:55:12;;;;;;;1.10;1.10;;;;;;;2.77;94.40;97844.00;6186442;23;20436;-93
2024/03/24 00:57:37;;;;;;;1.10;1.10;;;;;;;2.73;94.04;97831.56;6177647;23;20020;-91
2024/03/24 01:00:03;;;;;;;1.05;1.05;;;;;;;2.68;95.01;97832.16;6178324;23;20068;-91
2024/03/24 01:02:29;;;;;;;1.00;1.00;;;;;;;2.68;96.25;97827.78;6180774;23;20117;-91
2024/03/24 01:04:55;;;;;;;1.00;1.00;;;;;;;2.70;95.73;97819.97;6181700;23;20015;-91
2024/03/24 01:07:20;;;;;;;1.00;1.00;;;;;;;2.69;96.27;97818.19;6181841;23;20009;-90
2024/03/24 01:09:50;;;;;;;1.00;1.00;;;;;;;2.64;96.89;97824.97;6181669;23;20017;-90
2024/03/24 01:12:15;;;;;;;1.00;1.00;;;;;;;2.72;96.08;97813.03;6181464;23;20021;-90
2024/03/24 01:14:40;;;;;;;0.90;0.90;;;;;;;2.72;97.04;97823.56;6130173;23;20017;-90
2024/03/24 01:17:06;;;;;;;1.00;1.00;;;;;;;2.85;97.57;97817.13;6155308;23;20091;-89
2024/03/24 01:19:32;;;;;;;0.98;0.98;;;;;;;2.80;97.63;97814.28;6180681;23;20043;-91
2024/03/24 01:21:57;;;;;;;1.00;1.00;;;;;;;2.91;98.03;97814.75;6153320;23;20321;-91
2024/03/24 01:24:23;;;;;;;0.95;0.95;;;;;;;2.79;97.49;97808.13;6180457;23;20013;-91
2024/03/24 01:26:48;;;;;;;0.90;0.90;;;;;;;2.78;97.81;97803.69;6162249;23;20129;-90
2024/03/24 01:29:14;;;;;;;0.80;0.80;;;;;;;2.91;97.91;97798.94;6189088;23;20024;-92
2024/03/24 01:31:39;;;;;;;1.00;1.00;;;;;;;3.01;97.51;97798.50;6190434;23;20013;-90
2024/03/24 01:34:05;;;;;;;1.00;1.00;;;;;;;3.03;97.90;97794.22;6189881;23;20343;-92
2024/03/24 01:36:30;;;;;;;1.02;1.02;;;;;;;2.99;97.63;97792.28;6187947;23;20020;-91
2024/03/24 01:38:57;;;;;;;1.00;1.00;;;;;;;2.93;98.36;97781.50;6163673;23;20020;-91
2024/03/24 01:41:22;;;;;;;1.00;1.00;;;;;;;2.96;98.35;97787.75;6185354;23;20012;-91
2024/03/24 01:43:47;;;;;;;1.00;1.00;;;;;;;2.97;98.37;97789.59;6159900;23;20068;-90
2024/03/24 01:46:13;;;;;;;1.00;1.00;;;;;;;3.01;98.16;97787.97;6183505;23;20033;-90
2024/03/24 01:48:38;;;;;;;1.00;1.00;;;;;;;3.01;98.80;97778.31;6184050;23;20013;-91
2024/03/24 01:51:08;;;;;;;1.00;1.00;;;;;;;3.00;98.96;97773.91;6162916;23;20103;-91
2024/03/24 01:53:36;;;;;;;1.00;1.00;;;;;;;2.92;99.62;97769.13;6189986;23;20017;-91
2024/03/24 01:56:03;;;;;;;1.00;1.00;;;;;;;3.03;100.00;97766.13;6188500;23;20091;-90
2024/03/24 01:58:32;;;;;;;1.00;1.00;;;;;;;3.00;100.00;97770.38;6191415;23;20023;-90
2024/03/24 02:00:58;;;;;;;1.00;1.00;;;;;;;3.31;98.24;97780.50;6190926;23;20059;-91
2024/03/24 02:03:24;;;;;;;1.00;1.00;;;;;;;3.24;95.80;97781.06;6168998;23;20200;-89
2024/03/24 02:05:49;;;;;;;1.00;1.00;;;;;;;3.34;93.97;97778.84;6197847;23;20016;-91
2024/03/24 02:08:15;;;;;;;1.00;1.00;;;;;;;3.32;94.78;97788.44;6196715;23;20761;-89
2024/03/24 02:10:41;;;;;;;1.00;1.00;;;;;;;3.12;95.67;97778.81;6194232;23;20035;-91
2024/03/24 02:13:08;;;;;;;0.80;0.80;;;;;;;3.21;95.91;97786.19;6168221;23;20017;-91
2024/03/24 02:15:33;;;;;;;1.02;1.02;;;;;;;3.22;95.66;97790.63;6195885;23;20523;-91
2024/03/24 02:17:59;;;;;;;1.00;1.00;;;;;;;3.13;95.36;97791.16;6192614;23;20068;-91
2024/03/24 02:20:24;;;;;;;1.00;1.00;;;;;;;3.04;96.21;97786.38;6166502;23;20340;-91
2024/03/24 02:22:50;;;;;;;1.00;1.00;;;;;;;3.08;95.80;97787.41;6194811;23;20024;-92
2024/03/24 02:25:15;;;;;;;1.05;1.05;;;;;;;3.00;95.86;97791.44;6166129;23;20032;-91
2024/03/24 02:27:41;;;;;;;1.00;1.00;;;;;;;2.95;95.72;97791.25;6187024;23;20096;-91
2024/03/24 02:30:10;;;;;;;1.08;1.08;;;;;;;2.88;94.85;97790.94;6182295;23;20011;-90
2024/03/24 02:32:37;;;;;;;1.00;1.00;;;;;;;2.87;94.57;97782.09;6183774;23;20028;-91
2024/03/24 02:35:04;;;;;;;1.00;1.00;;;;;;;2.86;94.57;97777.66;6160264;23;20017;-90
2024/03/24 02:37:29;;;;;;;1.00;1.00;;;;;;;2.80;94.32;97772.16;6185509;23;20009;-90
2024/03/24 02:39:55;;;;;;;1.00;1.00;;;;;;;2.78;94.52;97766.81;6186940;23;20343;-90
2024/03/24 02:42:20;;;;;;;1.02;1.02;;;;;;;2.68;94.91;97769.84;6184582;23;20021;-90
2024/03/24 02:44:46;;;;;;;1.00;1.00;;;;;;;2.76;94.74;97762.31;6184585;23;20020;-91
2024/03/24 02:47:11;;;;;;;1.00;1.00;;;;;;;2.78;94.95;97755.38;6185217;23;20027;-90
2024/03/24 02:49:37;;;;;;;1.10;1.10;;;;;;;2.84;94.44;97758.28;6159674;23;20082;-91
2024/03/24 02:52:03;;;;;;;1.00;1.00;;;;;;;2.71;94.89;97751.56;6158759;23;20013;-90
2024/03/24 02:54:30;;;;;;;1.00;1.00;;;;;;;2.65;94.96;97750.41;6157253;23;20423;-91
2024/03/24 02:56:56;;;;;;;1.10;1.10;;;;;;;2.65;96.35;97746.03;6181380;23;20741;-90
2024/03/24 02:59:21;;;;;;;1.00;1.00;;;;;;;2.55;96.33;97747.38;6181445;23;20017;-91
2024/03/24 03:01:47;;;;;;;1.05;1.05;;;;;;;2.54;96.01;97747.31;6159354;23;20016;-90
2024/03/24 03:04:13;;;;;;;1.00;1.00;;;;;;;2.50;95.88;97743.63;6182892;23;20128;-91
2024/03/24 03:06:40;;;;;;;1.10;1.10;;;;;;;2.51;96.56;97742.78;6185145;23;20055;-90
2024/03/24 03:09:08;;;;;;;1.00;1.00;;;;;;;2.57;96.01;97734.25;6156985;23;20029;-90
2024/03/24 03:11:34;;;;;;;1.00;1.00;;;;;;;2.55;95.69;97742.09;6183547;23;20028;-91
2024/03/24 03:14:00;;;;;;;1.10;1.10;;;;;;;2.65;95.31;97742.50;6155479;23;20041;-91
2024/03/24 03:16:25;;;;;;;0.98;0.98;;;;;;;2.77;94.74;97743.91;6186755;23;20136;-90
2024/03/24 03:18:51;;;;;;;1.00;1.00;;;;;;;2.67;95.27;97741.72;6184222;23;20547;-91
2024/03/24 03:21:16;;;;;;;0.90;0.90;;;;;;;2.74;95.03;97746.44;6180756;23;20016;-91
2024/03/24 03:23:42;;;;;;;0.93;0.93;;;;;;;2.76;95.47;97741.22;6179536;23;19997;-90
2024/03/24 03:26:07;;;;;;;1.00;1.00;;;;;;;2.99;94.12;97739.59;6182674;23;20037;-91
2024/03/24 03:28:33;;;;;;;1.00;1.00;;;;;;;2.97;93.15;97731.63;6154886;23;20001;-92
2024/03/24 03:30:58;;;;;;;1.00;1.00;;;;;;;2.94;92.86;97731.50;6179490;23;20025;-91
2024/03/24 03:33:24;;;;;;;1.05;1.05;;;;;;;2.89;93.17;97737.41;6178245;23;20021;-91
2024/03/24 03:35:49;;;;;;;1.00;1.00;;;;;;;2.76;94.45;97728.97;6179965;23;20124;-91
2024/03/24 03:38:15;;;;;;;1.10;1.10;;;;;;;2.86;93.78;97738.16;6180297;23;20032;-91
2024/03/24 03:40:40;;;;;;;0.93;0.93;;;;;;;2.80;94.12;97730.91;6180744;23;20024;-90
2024/03/24 03:43:05;;;;;;;1.00;1.00;;;;;;;2.83;94.10;97732.78;6154939;23;20111;-91
2024/03/24 03:45:31;;;;;;;1.10;1.10;;;;;;;2.84;93.93;97729.31;6155116;23;20409;-89
2024/03/24 03:47:57;;;;;;;1.00;1.00;;;;;;;2.85;94.13;97730.19;6155293;23;20012;-90
2024/03/24 03:50:23;;;;;;;1.10;1.10;;;;;;;2.88;94.07;97722.44;6180284;23;20016;-89
2024/03/24 03:52:49;;;;;;;1.00;1.00;;;;;;;2.86;94.38;97718.81;6178417;23;20009;-90
2024/03/24 03:55:17;;;;;;;1.00;1.00;;;;;;;2.87;94.50;97720.63;6179283;23;20017;-91
2024/03/24 03:57:43;;;;;;;1.10;1.10;;;;;;;2.86;94.60;97717.09;6180166;23;20013;-90
2024/03/24 04:00:12;;;;;;;1.02;1.02;;;;;;;2.82;94.61;97717.78;6180445;23;20019;-92
2024/03/24 04:02:42;;;;;;;1.05;1.05;;;;;;;2.90;94.68;97719.03;6180208;23;20433;-90
2024/03/24 04:05:09;;;;;;;1.00;1.00;;;;;;;2.89;94.81;97713.69;6179239;23;20005;-89
2024/03/24 04:07:38;;;;;;;1.00;1.00;;;;;;;2.88;94.90;97710.16;6179564;23;20024;-89
2024/03/24 04:10:04;;;;;;;1.08;1.08;;;;;;;2.88;94.61;97714.53;6181114;23;20005;-91
2024/03/24 04:12:29;;;;;;;1.02;1.02;;;;;;;2.96;94.57;97711.38;6177847;23;20005;-88
2024/03/24 04:14:55;;;;;;;0.90;0.90;;;;;;;2.90;94.74;97713.75;6154880;23;20067;-91
2024/03/24 04:17:20;;;;;;;1.00;1.00;;;;;;;2.91;94.52;97717.28;6178786;23;20133;-91
2024/03/24 04:19:46;;;;;;;1.05;1.05;;;;;;;2.91;94.78;97715.53;6179562;23;20128;-90
2024/03/24 04:22:14;;;;;;;1.10;1.10;;;;;;;2.89;95.38;97716.31;6180901;23;20020;-90
2024/03/24 04:24:39;;;;;;;1.00;1.00;;;;;;;2.98;95.04;97722.88;6182214;23;20021;-90
2024/03/24 04:27:05;;;;;;;1.00;1.00;;;;;;;3.03;94.70;97710.81;6180025;23;20480;-89
2024/03/24 04:29:30;;;;;;;0.90;0.90;;;;;;;2.98;94.97;97719.34;6179189;23;20357;-89
2024/03/24 04:31:56;;;;;;;1.00;1.00;;;;;;;2.89;95.73;97701.41;6154738;23;20013;-90
2024/03/24 04:34:21;;;;;;;1.00;1.00;;;;;;;2.77;95.21;97712.31;6154428;23;20347;-90
2024/03/24 04:36:48;;;;;;;1.10;1.10;;;;;;;2.85;94.60;97704.75;6179527;23;20027;-91
2024/03/24 04:39:18;;;;;;;1.00;1.00;;;;;;;2.78;94.40;97710.63;6154288;23;20108;-89
2024/03/24 04:41:46;;;;;;;1.00;1.00;;;;;;;2.81;93.86;97716.88;6180948;23;20457;-90
2024/03/24 04:44:11;;;;;;;1.00;1.00;;;;;;;2.86;93.92;97726.72;6181822;23;20009;-90
2024/03/24 04:46:37;;;;;;;1.00;1.00;;;;;;;2.77;95.38;97722.84;6182086;23;20039;-90
2024/03/24 04:49:04;;;;;;;1.00;1.00;;;;;;;2.74;95.22;97712.22;6180844;23;20021;-91
2024/03/24 04:51:29;;;;;;;1.10;1.10;;;;;;;2.79;94.49;97718.56;6182099;23;20102;-89
2024/03/24 04:53:56;;;;;;;0.93;0.93;;;;;;;2.77;93.91;97714.94;6181369;23;20440;-91
2024/03/24 04:56:22;;;;;;;1.10;1.10;;;;;;;2.75;93.84;97715.75;6155238;23;20103;-91
2024/03/24 04:58:48;;;;;;;0.98;0.98;;;;;;;2.78;93.29;97719.41;6157833;23;20040;-91
2024/03/24 05:01:13;;;;;;;1.00;1.00;;;;;;;2.72;94.64;97712.97;6160576;23;20032;-90
2024/03/24 05:03:39;;;;;;;1.00;1.00;;;;;;;2.64;95.14;97725.81;6187085;23;20504;-91
2024/03/24 05:06:04;;;;;;;1.10;1.10;;;;;;;2.75;95.62;97734.16;6160920;23;20083;-92
2024/03/24 05:08:33;;;;;;;1.10;1.10;;;;;;;2.68;96.36;97727.72;6156663;23;20035;-90
2024/03/24 05:11:05;;;;;;;1.00;1.00;;;;;;;2.61;96.75;97725.66;6157781;23;20009;-91
2024/03/24 05:13:32;;;;;;;0.95;0.95;;;;;;;2.62;96.83;97716.03;6156924;23;20028;-89
2024/03/24 05:15:58;;;;;;;1.00;1.00;;;;;;;2.62;97.35;97730.09;6156746;23;20021;-90
2024/03/24 05:18:23;;;;;;;0.95;0.95;;;;;;;2.81;96.51;97731.78;6181204;23;20024;-90
2024/03/24 05:20:49;;;;;;;1.00;1.00;;;;;;;2.74;96.43;97738.53;6179273;23;20044;-88
2024/03/24 05:23:18;;;;;;;1.00;1.00;;;;;;;2.87;94.27;97737.31;6154876;23;20013;-90
2024/03/24 05:25:52;;;;;;;1.00;1.00;;;;;;;2.78;94.70;97736.94;6180102;23;20340;-91
2024/03/24 05:28:18;;;;;;;1.10;1.10;;;;;;;2.88;93.67;97730.34;6180319;23;20055;-89
2024/03/24 05:30:43;;;;;;;1.10;1.10;;;;;;;2.87;93.05;97733.78;6178518;23;20012;-90
2024/03/24 05:33:09;;;;;;;1.10;1.10;;;;;;;2.87;92.84;97733.78;6178343;23;20013;-89
2024/03/24 05:35:35;;;;;;;1.05;1.05;;;;;;;2.88;92.82;97739.13;6154991;23;20032;-89
2024/03/24 05:38:00;;;;;;;1.10;1.10;;;;;;;2.89;92.92;97740.94;6154942;23;20017;-91
2024/03/24 05:40:25;;;;;;;1.00;1.00;;;;;;;2.85;92.52;97730.19;6180039;23;20040;-90
2024/03/24 05:42:51;;;;;;;1.05;1.05;;;;;;;2.86;92.66;97737.25;6154218;23;20017;-89
2024/03/24 05:45:17;;;;;;;1.10;1.10;;;;;;;2.93;92.74;97734.06;6181414;23;20009;-91
2024/03/24 05:47:44;;;;;;;1.00;1.00;;;;;;;2.82;93.06;97731.84;6156780;23;20053;-92
2024/03/24 05:50:09;;;;;;;1.00;1.00;;;;;;;2.77;93.74;97740.38;6181086;23;20009;-91
2024/03/24 05:52:37;;;;;;;1.10;1.10;;;;;;;2.80;94.16;97749.34;6183452;23;20519;-91
2024/03/24 05:55:06;;;;;;;1.10;1.10;;;;;;;2.81;93.03;97745.84;6130026;23;20012;-89
2024/03/24 05:57:32;;;;;;;1.00;1.00;;;;;;;2.90;92.46;97744.47;6154204;23;20052;-90
2024/03/24 05:59:59;;;;;;;1.00;1.00;;;;;;;2.87;92.68;97744.31;6179614;23;20020;-90
2024/03/24 06:02:25;;;;;;;1.00;1.00;;;;;;;2.99;91.65;97747.50;6153661;23;20075;-90
2024/03/24 06:04:50;;;;;;;0.98;0.98;;;;;;;3.02;91.20;97745.91;6180591;23;20021;-90
2024/03/24 06:07:15;;;;;;;1.00;1.00;;;;;;;3.08;90.84;97751.41;6179542;23;20017;-91
2024/03/24 06:09:41;;;;;;;1.00;1.00;;;;;;;3.07;89.99;97754.00;6179150;23;20017;-88
2024/03/24 06:12:08;;;;;;;1.10;1.10;;;;;;;3.18;88.41;97747.44;6178090;23;20015;-88
2024/03/24 06:14:33;;;;;;;1.10;1.10;;;;;;;3.19;88.08;97751.84;6176648;23;20035;-89
2024/03/24 06:16:59;;;;;;;1.08;1.08;;;;;;;3.20;87.91;97750.13;6151904;23;20635;-91
2024/03/24 06:19:27;;;;;;;1.10;1.10;;;;;;;3.21;87.39;97755.47;6179711;23;20440;-90
2024/03/24 06:21:55;;;;;;;1.00;1.00;;;;;;;3.11;87.53;97753.25;6153375;23;20005;-91
2024/03/24 06:24:21;;;;;;;1.10;1.10;;;;;;;3.13;88.18;97748.97;6178236;23;20444;-90
2024/03/24 06:26:46;;;;;;;1.10;1.10;;;;;;;3.26;87.74;97756.56;6151449;23;20020;-91
2024/03/24 06:29:11;;;;;;;1.00;1.00;;;;;;;3.34;87.84;97755.13;6152883;23;20017;-92
2024/03/24 06:31:37;;;;;;;1.00;1.00;;;;;;;3.31;87.41;97765.56;6152828;23;20021;-89
2024/03/24 06:34:04;;;;;;;1.00;1.00;;;;;;;3.43;87.03;97759.00;6151565;23;20628;-91
2024/03/24 06:36:30;;;;;;;1.05;1.05;;;;;;;3.37;86.67;97758.75;6152564;23;20028;-90
2024/03/24 06:38:55;;;;;;;1.00;1.00;;;;;;;3.34;87.24;97765.66;6178074;23;20021;-90
2024/03/24 06:41:21;;;;;;;1.00;1.00;;;;;;;3.66;87.18;97762.56;6155282;23;20021;-89
2024/03/24 06:43:47;;;;;;;1.10;1.10;;;;;;;3.88;85.56;97765.22;6152136;23;20041;-90
2024/03/24 06:46:13;;;;;;;1.00;1.00;;;;;;;3.89;85.01;97758.22;6153788;23;20016;-90
2024/03/24 06:48:38;;;;;;;1.00;1.00;;;;;;;3.81;85.75;97769.34;6153266;23;20020;-91
2024/03/24 06:51:04;;;;;;;1.00;1.00;;;;;;;3.73;86.06;97770.78;6179128;23;20101;-89
2024/03/24 06:53:30;;;;;;;1.00;1.00;;;;;;;3.82;85.92;97781.69;6202138;23;20032;-88
2024/03/24 06:55:55;;;;;;;0.95;0.95;;;;;;;3.91;85.88;97775.00;6178398;23;20025;-89
2024/03/24 06:58:20;;;;;;;0.90;0.90;;;;;;;4.01;84.95;97782.44;6177500;23;20075;-90
2024/03/24 07:00:51;;;;;;;1.10;1.10;;;;;;;4.05;85.15;97769.41;6177727;23;20021;-90
2024/03/24 07:03:17;;;;;;;0.90;0.90;;;;;;;4.17;82.99;97765.44;6152618;23;20072;-89
2024/03/24 07:05:42;;;;;;;1.00;1.00;;;;;;;4.27;82.26;97764.97;6181686;23;20025;-89
2024/03/24 07:08:08;;;;;;;1.00;1.00;;;;;;;4.19;82.26;97766.41;6154009;23;20021;-89
2024/03/24 07:10:33;;;;;;;1.00;1.00;;;;;;;4.20;81.99;97771.75;6180814;23;20016;-89
2024/03/24 07:12:58;;;;;;;0.90;0.90;;;;;;;4.24;81.36;97775.41;6176395;23;20337;-90
2024/03/24 07:15:24;;;;;;;1.00;1.00;;;;;;;4.14;81.12;97767.97;6179627;23;20304;-91
2024/03/24 07:17:50;;;;;;;1.00;1.00;;;;;;;4.15;81.73;97775.94;6178766;23;20022;-90
2024/03/24 07:20:15;;;;;;;1.00;1.00;;;;;;;4.28;81.62;97775.59;6180096;23;20017;-89
2024/03/24 07:22:41;;;;;;;1.00;1.00;;;;;;;4.30;80.46;97770.34;6181773;23;20020;-90
2024/03/24 07:25:07;;;;;;;1.00;1.00;;;;;;;4.45;80.13;97770.03;6186711;23;20013;-90
2024/03/24 07:27:33;;;;;;;1.10;1.10;;;;;;;4.49;78.92;97772.84;6156050;23;20009;-90
2024/03/24 07:29:58;;;;;;;1.00;1.00;;;;;;;4.68;78.13;97774.41;6154942;23;20072;-88
2024/03/24 07:32:24;;;;;;;1.00;1.00;;;;;;;4.76;77.69;97775.59;6179682;23;20862;-91
2024/03/24 07:34:50;;;;;;;0.95;0.95;;;;;;;4.61;76.32;97759.19;6179002;23;20072;-90
2024/03/24 07:37:15;;;;;;;1.00;1.00;;;;;;;4.56;74.86;97761.66;6177357;23;20013;-89
2024/03/24 07:39:41;;;;;;;1.10;1.10;;;;;;;5.58;70.20;97747.56;6177794;23;20017;-90
2024/03/24 07:42:09;;;;;;;1.00;1.00;;;;;;;6.02;68.99;97746.38;6152205;23;20354;-89
2024/03/24 07:44:34;;;;;;;0.90;0.90;;;;;;;6.60;67.31;97741.91;6178943;23;20013;-89
2024/03/24 07:47:04;;;;;;;1.00;1.00;;;;;;;6.78;66.44;97739.78;6151939;23;20019;-90
2024/03/24 07:49:30;;;;;;;1.00;1.00;;;;;;;7.25;64.13;97744.56;6152502;23;20803;-89
2024/03/24 07:51:55;;;;;;;0.90;0.90;;;;;;;7.27;62.29;97745.50;6153020;23;20009;-89
2024/03/24 07:54:21;;;;;;;0.80;0.80;;;;;;;7.32;63.68;97744.75;6175763;23;20009;-89
2024/03/24 07:56:47;;;;;;;0.80;0.80;;;;;;;7.71;63.53;97736.91;6151211;23;20021;-90
2024/03/24 07:59:13;;;;;;;0.90;0.90;;;;;;;7.29;63.86;97736.72;6175872;23;20095;-90
2024/03/24 08:01:38;;;;;;;0.90;0.90;;;;;;;8.08;61.11;97735.09;6177815;23;20001;-89
2024/03/24 08:04:04;;;;;;;0.80;0.80;;;;;;;7.90;61.86;97730.25;6152913;23;20021;-89
2024/03/24 08:06:29;;;;;;;0.90;0.90;;;;;;;7.61;61.28;97733.97;6177842;23;20043;-90
2024/03/24 08:08:55;;;;;;;0.80;0.80;;;;;;;8.17;58.97;97732.66;6179786;23;20023;-89
2024/03/24 08:11:21;;;;;;;0.90;0.90;;;;;;;8.66;58.49;97728.41;6178421;23;20017;-88
2024/03/24 08:13:46;;;;;;;0.88;0.88;;;;;;;8.94;55.93;97742.28;6152431;23;20017;-88
2024/03/24 08:16:11;;;;;;;0.80;0.80;;;;;;;8.88;56.87;97724.44;6177554;23;20701;-88
2024/03/24 08:18:37;;;;;;;0.80;0.80;;;;;;;8.05;58.18;97739.44;6178784;23;20021;-87
2024/03/24 08:21:04;;;;;;;0.85;0.85;;;;;;;8.10;59.03;97732.50;6177571;23;20689;-89
2024/03/24 08:23:29;;;;;;;0.70;0.70;;;;;;;8.25;58.10;97734.59;6178913;23;20017;-88
2024/03/24 08:25:55;;;;;;;0.77;0.77;;;;;;;7.95;59.65;97735.66;6180069;23;20104;-88
2024/03/24 08:28:22;;;;;;;0.70;0.70;;;;;;;7.33;62.36;97735.97;6178302;23;20037;-89
2024/03/24 08:30:47;;;;;;;0.90;0.90;;;;;;;6.77;62.76;97730.03;6180418;23;20112;-90
2024/03/24 08:33:13;;;;;;;0.80;0.80;;;;;;;6.58;64.32;97731.25;6177771;23;20017;-89
2024/03/24 08:35:38;;;;;;;0.80;0.80;;;;;;;6.37;66.02;97736.84;6179207;23;20458;-90
2024/03/24 08:38:03;;;;;;;0.80;0.80;;;;;;;6.26;66.73;97748.84;6176591;23;20321;-90
2024/03/24 08:40:29;;;;;;;0.90;0.90;;;;;;;6.34;64.22;97749.09;6178778;23;20575;-88
2024/03/24 08:42:54;;;;;;;0.90;0.90;;;;;;;6.66;64.37;97739.44;6180405;23;20326;-89
2024/03/24 08:45:20;;;;;;;0.90;0.90;;;;;;;6.81;63.78;97744.28;6179126;23;20614;-89
2024/03/24 08:47:45;;;;;;;0.80;0.80;;;;;;;6.81;64.66;97754.88;6176969;23;20017;-88
2024/03/24 08:50:10;;;;;;;0.90;0.90;;;;;;;6.80;62.12;97745.09;6152794;23;20332;-89
2024/03/24 08:52:36;;;;;;;0.90;0.90;;;;;;;6.64;62.25;97746.44;6176621;23;20049;-88
2024/03/24 08:55:02;;;;;;;0.90;0.90;;;;;;;6.69;60.74;97736.84;6152233;23;20016;-89
2024/03/24 08:57:27;;;;;;;0.80;0.80;;;;;;;6.64;61.25;97749.97;6178825;23;20025;-88
2024/03/24 08:59:57;;;;;;;0.80;0.80;;;;;;;6.57;60.39;97747.13;6181134;23;20017;-89
2024/03/24 09:02:23;;;;;;;0.90;0.90;;;;;;;6.70;59.87;97751.91;6154950;23;20031;-88
2024/03/24 09:04:53;;;;;;;0.80;0.80;;;;;;;6.75;59.38;97760.88;6181666;23;20021;-90
2024/03/24 09:07:20;;;;;;;0.90;0.90;;;;;;;6.59;58.56;97746.31;6179689;23;20016;-91
2024/03/24 09:09:46;;;;;;;0.90;0.90;;;;;;;6.73;60.07;97754.66;6180783;23;20020;-89
2024/03/24 09:12:11;;;;;;;0.98;0.98;;;;;;;6.66;58.63;97745.63;6189414;23;20009;-90
2024/03/24 09:14:36;;;;;;;0.90;0.90;;;;;;;6.74;59.38;97756.44;6193724;23;20072;-91
2024/03/24 09:17:02;;;;;;;0.90;0.90;;;;;;;6.54;59.43;97761.16;6192875;23;20017;-90
2024/03/24 09:19:28;;;;;;;0.90;0.90;;;;;;;6.36;60.71;97763.28;6170689;23;20159;-91
2024/03/24 09:21:53;;;;;;;0.90;0.90;;;;;;;6.30;60.85;97763.09;6171991;23;20032;-90
2024/03/24 09:24:19;;;;;;;0.90;0.90;;;;;;;6.27;60.98;97763.88;6191323;23;20016;-89
2024/03/24 09:26:44;;;;;;;0.90;0.90;;;;;;;6.25;60.46;97759.41;6186314;23;20104;-90
2024/03/24 09:29:09;;;;;;;0.80;0.80;;;;;;;6.29;61.58;97756.00;6188270;23;20009;-91
2024/03/24 09:31:35;;;;;;;0.90;0.90;;;;;;;6.19;61.61;97756.59;6184641;23;20020;-91
2024/03/24 09:34:00;;;;;;;1.00;1.00;;;;;;;6.27;62.33;97758.59;6158540;23;20024;-90
2024/03/24 09:36:26;;;;;;;0.90;0.90;;;;;;;6.20;62.03;97753.97;6185759;23;20029;-91
2024/03/24 09:38:52;;;;;;;0.90;0.90;;;;;;;6.15;63.17;97763.53;6184813;23;20005;-89
2024/03/24 09:41:18;;;;;;;1.00;1.00;;;;;;;6.35;62.30;97767.69;6157953;23;20302;-89
2024/03/24 09:43:44;;;;;;;1.00;1.00;;;;;;;6.26;62.67;97774.44;6182744;23;20063;-89
2024/03/24 09:46:11;;;;;;;0.90;0.90;;;;;;;6.27;63.11;97760.34;6207424;23;20009;-91
2024/03/24 09:48:38;;;;;;;;;;;;;;;6.25;64.16;97765.59;6182791;23;20024;-90
2024/03/24 09:51:05;;;;;;;1.00;1.00;;;;;;;6.19;63.78;97767.19;6156564;23;19908;-89
2024/03/24 09:53:33;;;;;;;;;;;;;;;6.02;64.45;97758.72;6181845;23;20017;-91
2024/03/24 09:56:00;;;;;;;0.90;0.90;;;;;;;5.95;65.30;97769.97;6180576;23;19912;-92
2024/03/24 09:58:25;;;;;;;1.00;1.00;;;;;;;5.87;64.64;97767.94;6155487;23;20044;-90
2024/03/24 10:00:52;;;;;;;0.80;0.80;;;;;;;5.87;65.77;97767.94;6180707;23;20017;-90
2024/03/24 10:03:18;;;;;;;1.00;1.00;;;;;;;5.82;65.70;97771.28;6181758;23;20025;-91
2024/03/24 10:05:46;;;;;;;0.93;0.93;;;;;;;5.88;65.69;97761.78;6157232;23;20037;-90
2024/03/24 10:08:11;;;;;;;0.80;0.80;;;;;;;5.94;65.90;97768.16;6182643;23;20059;-91
2024/03/24 10:10:37;;;;;;;0.90;0.90;;;;;;;6.00;65.72;97763.06;6181474;23;20048;-91
2024/03/24 10:13:03;;;;;;;0.90;0.90;;;;;;;6.01;64.50;97751.63;6186799;23;20020;-93
2024/03/24 10:15:33;;;;;;;1.00;1.00;;;;;;;6.18;64.82;97753.06;6190224;23;20008;-91
2024/03/24 10:18:09;;;;;;;0.90;0.90;;;;;;;6.22;63.92;97764.59;6190177;23;20017;-91
2024/03/24 10:20:37;;;;;;;1.10;1.10;;;;;;;6.19;63.95;97759.25;6163391;23;20044;-90
2024/03/24 10:23:03;;;;;;;1.00;1.00;;;;;;;6.36;63.76;97760.63;6192080;23;20087;-92
2024/03/24 10:25:32;;;;;;;0.90;0.90;;;;;;;6.38;63.53;97777.47;6165991;23;20052;-91
2024/03/24 10:28:01;;;;;;;0.90;0.90;;;;;;;6.60;64.21;97771.03;6119360;23;20056;-91
2024/03/24 10:30:28;;;;;;;0.90;0.90;;;;;;;6.54;62.68;97761.16;6195193;23;20027;-90
2024/03/24 10:32:54;;;;;;;;;;;;;;;6.27;63.17;97755.94;6171485;23;20064;-90
2024/03/24 10:35:21;;;;;;;1.00;1.00;;;;;;;6.26;63.36;97754.16;6195664;23;19919;-92
2024/03/24 10:37:48;;;;;;;0.85;0.85;;;;;;;6.32;63.91;97759.63;6172073;23;20056;-89
2024/03/24 10:40:13;;;;;;;0.90;0.90;;;;;;;6.24;63.06;97742.63;6193228;23;20020;-91
2024/03/24 10:42:49;;;;;;;0.80;0.80;;;;;;;6.29;63.71;97745.41;6195984;23;20100;-91
2024/03/24 10:45:24;;;;;;;0.90;0.90;;;;;;;6.21;63.47;97747.81;6195838;23;20770;-91
2024/03/24 10:47:58;;;;;;;0.90;0.90;;;;;;;6.22;63.47;97743.41;6189030;23;20480;-90
2024/03/24 10:50:25;;;;;;;0.90;0.90;;;;;;;6.25;64.92;97744.41;6185665;23;20017;-90
2024/03/24 10:52:56;;;;;;;1.00;1.00;;;;;;;6.24;64.61;97742.63;6168343;23;20009;-90
2024/03/24 10:55:23;;;;;;;0.90;0.90;;;;;;;6.32;64.93;97742.84;6195389;23;20090;-90
2024/03/24 10:57:52;;;;;;;0.80;0.80;;;;;;;6.33;64.82;97748.22;6171473;23;20021;-87
2024/03/24 11:00:19;;;;;;;0.90;0.90;;;;;;;6.36;63.66;97735.03;6198903;23;20012;-90
2024/03/24 11:02:47;;;;;;;1.00;1.00;;;;;;;6.34;64.31;97744.69;6201484;23;20044;-91
2024/03/24 11:05:14;;;;;;;0.90;0.90;;;;;;;6.40;63.78;97746.63;6196326;23;20001;-91
2024/03/24 11:07:41;;;;;;;0.90;0.90;;;;;;;6.48;64.06;97734.50;6193493;23;20360;-88
2024/03/24 11:10:07;;;;;;;1.00;1.00;;;;;;;6.54;63.83;97736.44;6163749;23;20058;-89
2024/03/24 11:12:37;;;;;;;0.80;0.80;;;;;;;6.51;62.91;97749.56;6145270;23;20017;-88
2024/03/24 11:15:05;;;;;;;0.90;0.90;;;;;;;6.55;63.44;97736.47;6194269;23;20009;-90
2024/03/24 11:17:31;;;;;;;0.88;0.88;;;;;;;6.57;63.31;97734.78;6196251;23;20017;-91
2024/03/24 11:20:01;;;;;;;0.90;0.90;;;;;;;6.51;63.37;97725.72;6195149;23;20027;-90
2024/03/24 11:22:42;;;;;;;0.90;0.90;;;;;;;6.45;63.05;97734.41;6200840;23;20043;-89
2024/03/24 11:25:08;;;;;;;0.90;0.90;;;;;;;6.51;63.88;97723.09;6171851;23;20261;-90
2024/03/24 11:27:42;;;;;;;0.90;0.90;;;;;;;6.57;63.82;97715.31;6194402;23;20168;-91
2024/03/24 11:30:15;;;;;;;0.80;0.80;;;;;;;6.60;61.28;97720.69;6191730;23;20013;-90
2024/03/24 11:32:49;;;;;;;0.90;0.90;;;;;;;6.67;62.05;97709.44;6202826;23;20005;-89
2024/03/24 11:35:36;;;;;;;0.90;0.90;;;;;;;6.63;61.92;97708.44;6204031;23;20027;-91
2024/03/24 11:38:05;;;;;;;1.00;1.00;;;;;;;6.55;62.38;97715.25;6176451;23;19997;-89